• Join FlightAware (Why Join?)
  • Login
  • US Flag 
01:42PM EDT


 

Airport Tracker/Info


-or-


 

Live Flight TrackerFlight Track Log ✈ SKW7367 ✈ 22-Nov-2013 ✈ KDTW - KAPN

Flight Track Log - Related Links

Times and Time Zones

All times are in EST time to prevent confusion due to time zone crossing. See the SKW7367 flight status page for this flight to view local times or setup timezone preferences in your user account.

Time Position Orientation Groundspeed Altitude Reporting Facility
EST Latitude Longitude Course Direction KTS MPH feet Rate Location/Type
04:07PM 42.2214 -83.3581 337° Northwest 145 167 1,400  Level Cleveland Center
04:08PM 42.2692 -83.3367 18° North 214 246 4,300 2,460 Climbing Cleveland Center
04:08PM 42.2706 -83.3378 329° Northwest 194 223 4,300 3,060 Level Cleveland Center
04:09PM 42.3408 -83.3114 16° North 237 273 7,900 3,180 Climbing Cleveland Center
04:09PM 42.4014 -83.2789 22° Northeast 292 336 10,100 2,460 Climbing Cleveland Center
04:10PM 42.6321 -83.3825 North  Level Estimated
04:10PM 42.4125 -83.2722 24° Northeast 267 307 10,500  Level Cleveland Center
04:11PM 42.7370 -83.3898 313° West  Level Estimated
04:11PM 42.5022 -83.2767 358° North 300 345 12,800  Level Cleveland Center
04:12PM 42.8338 -83.4455 337° Northwest  Level FlightAware Approximate
04:12PM 42.5964 -83.2983 350° North 338 389 13,600  Level Cleveland Center
04:13PM 42.6894 -83.3119 354° North 340 391 17,800 2,580 Climbing Cleveland Center
04:14PM 42.7789 -83.3194 356° North 325 374 19,000 540 Climbing Cleveland Center
04:15PM 42.8778 -83.3303 355° North 350 403 19,000  Level Cleveland Center
04:16PM 42.9936 -83.3411 356° North 350 403 19,000  Level Cleveland Center
04:17PM 43.0856 -83.3519 355° North 338 389 19,000  Level Cleveland Center
04:18PM 43.1764 -83.3603 356° North 329 379 19,000  Level Cleveland Center
04:19PM 43.2656 -83.3683 356° North 323 372 19,000  Level Cleveland Center
04:20PM 43.3569 -83.3775 356° North 329 379 19,000  Level Cleveland Center
04:21PM 43.4494 -83.3864 356° North 333 383 19,000  Level Cleveland Center
04:22PM 43.5600 -83.3997 355° North 333 383 19,000  Level Cleveland Center
04:23PM 43.6519 -83.4092 356° North 332 382 19,000  Level Cleveland Center
04:24PM 43.7097 -83.4158 355° North 332 382 19,000  Level Minneapolis Center
04:25PM 43.8169 -83.4264 356° North 327 376 19,000  Level Minneapolis Center
04:26PM 43.9067 -83.4353 356° North 325 374 19,000  Level Minneapolis Center
04:27PM 44.0017 -83.4447 356° North 319 367 19,000  Level Minneapolis Center
04:28PM 44.0886 -83.4542 356° North 318 366 19,000  Level Minneapolis Center
04:29PM 44.1828 -83.4639 356° North 318 366 19,000 -480 Level Minneapolis Center
04:30PM 44.2708 -83.4772 354° North 320 368 18,100 -1,500 Descending Minneapolis Center
04:31PM 44.3614 -83.4992 350° North 309 356 16,000 -2,160 Descending Minneapolis Center
04:32PM 44.4389 -83.5225 348° North 292 336 13,700 -2,520 Descending Minneapolis Center
04:33PM 44.5186 -83.5536 344° North 279 321 10,900 -2,220 Descending Minneapolis Center
04:34PM 44.5894 -83.5594 357° North 261 300 9,200 -2,280 Descending Minneapolis Center
04:35PM 44.6603 -83.5603 360° North 240 276 6,300 -2,520 Descending Minneapolis Center
04:36PM 44.7228 -83.5597 360° North 230 265 4,100 -1,560 Descending Minneapolis Center
04:37PM 44.7881 -83.5597 360° North 223 257 3,100 -660 Descending Minneapolis Center
04:38PM 44.8444 -83.5592 360° North 194 223 2,800 -180 Descending Minneapolis Center
04:39PM 44.8975 -83.5589 360° North 193 222 2,800  Level Minneapolis Center
04:40PM 44.9525 -83.5589 360° North 188 216 2,800 -240 Level Minneapolis Center
04:42PM 44.9908 -83.5608 358° North 150 173 2,400 -660 Descending Minneapolis Center
04:43PM 45.0289 -83.5611 360° North 133 153 1,500 -780 Descending Minneapolis Center
04:44PM 45.0628 -83.5614 360° North 124 143 800 -720 Descending Minneapolis Center